Time;durP1;ratioP1;P1;durP2;ratioP2;P2;SDS_P1;SDS_P2;PMS_P1;PMS_P2;Temp;Humidity;BMP_temperature;BMP_pressure;BME280_temperature;BME280_humidity;BME280_pressure;Samples;Min_cycle;Max_cycle;Signal;HPM_P1;HPM_P2
2024/02/29 00:01:55;;;;;;;5.80;4.35;;;6.80;99.90;;;;;;5065878;28;20059;-80
2024/02/29 00:04:21;;;;;;;6.70;3.35;;;6.80;99.90;;;;;;5083182;28;20045;-80
2024/02/29 00:06:47;;;;;;;6.60;3.45;;;6.80;99.90;;;;;;5079540;28;20423;-80
2024/02/29 00:09:13;;;;;;;5.93;3.03;;;6.80;99.90;;;;;;5097188;28;20044;-81
2024/02/29 00:11:38;;;;;;;5.38;3.33;;;6.70;99.90;;;;;;5098791;28;20100;-81
2024/02/29 00:14:04;;;;;;;6.65;3.05;;;6.70;99.90;;;;;;5084768;28;20044;-81
2024/02/29 00:16:31;;;;;;;7.40;3.97;;;6.60;99.90;;;;;;5082659;28;20043;-78
2024/02/29 00:18:57;;;;;;;5.25;2.83;;;6.60;99.90;;;;;;5080769;28;20040;-78
2024/02/29 00:21:23;;;;;;;13.05;2.78;;;6.60;99.90;;;;;;5067137;28;20063;-80
2024/02/29 00:23:48;;;;;;;5.90;2.22;;;6.60;99.90;;;;;;5080351;28;20032;-78
2024/02/29 00:26:14;;;;;;;6.57;3.58;;;6.60;99.90;;;;;;5067070;28;20048;-81
2024/02/29 00:28:40;;;;;;;5.40;3.35;;;6.60;99.90;;;;;;5085264;28;20558;-81
2024/02/29 00:31:06;;;;;;;4.80;3.90;;;6.50;99.90;;;;;;5067495;28;20126;-80
2024/02/29 00:33:31;;;;;;;5.22;2.75;;;6.50;99.90;;;;;;5082500;28;20395;-78
2024/02/29 00:35:57;;;;;;;5.82;3.90;;;6.50;99.90;;;;;;5086276;28;20040;-80
2024/02/29 00:38:23;;;;;;;7.95;3.20;;;6.60;99.90;;;;;;5066133;28;20036;-80
2024/02/29 00:40:48;;;;;;;4.90;3.15;;;6.50;99.90;;;;;;5094563;28;20062;-80
2024/02/29 00:43:14;;;;;;;6.13;2.80;;;6.50;99.90;;;;;;5086519;28;20085;-80
2024/02/29 00:45:40;;;;;;;5.30;2.92;;;6.50;99.90;;;;;;5087589;28;20047;-80
2024/02/29 00:48:06;;;;;;;3.97;2.45;;;6.50;99.90;;;;;;5085686;28;20411;-78
2024/02/29 00:50:33;;;;;;;3.63;2.33;;;6.50;99.90;;;;;;5069590;28;20032;-80
2024/02/29 00:52:58;;;;;;;7.20;3.13;;;6.50;99.90;;;;;;5084910;28;20503;-78
2024/02/29 00:55:24;;;;;;;5.10;3.25;;;6.50;99.90;;;;;;5083918;28;20105;-80
2024/02/29 00:57:51;;;;;;;4.45;3.22;;;6.50;99.90;;;;;;5086498;28;20040;-80
2024/02/29 01:00:17;;;;;;;3.67;2.35;;;6.40;99.90;;;;;;5071406;28;20075;-79
2024/02/29 01:02:44;;;;;;;7.90;3.35;;;6.50;99.90;;;;;;5090954;28;20488;-80
2024/02/29 01:05:11;;;;;;;4.20;1.95;;;6.40;99.90;;;;;;5092701;28;20044;-79
2024/02/29 01:07:40;;;;;;;5.25;3.13;;;6.40;99.90;;;;;;5091230;28;20052;-81
2024/02/29 01:10:11;;;;;;;2.95;2.40;;;6.40;99.90;;;;;;5086591;28;20048;-80
2024/02/29 01:12:39;;;;;;;10.57;2.88;;;6.40;99.90;;;;;;5092593;28;20043;-80
2024/02/29 01:15:09;;;;;;;6.82;3.65;;;6.40;99.90;;;;;;5088972;28;20408;-81
2024/02/29 01:17:35;;;;;;;5.95;3.08;;;6.40;99.90;;;;;;5091372;28;20063;-80
2024/02/29 01:20:03;;;;;;;14.23;3.13;;;6.40;99.90;;;;;;5091787;28;20050;-80
2024/02/29 01:22:29;;;;;;;5.53;3.15;;;6.40;99.90;;;;;;5091383;28;20067;-80
2024/02/29 01:24:54;;;;;;;3.28;2.35;;;6.40;99.90;;;;;;5087974;28;20141;-75
2024/02/29 01:27:20;;;;;;;5.13;3.50;;;6.40;99.90;;;;;;5074541;28;20086;-80
2024/02/29 01:29:46;;;;;;;4.90;2.97;;;6.50;99.90;;;;;;5090037;28;20040;-80
2024/02/29 01:32:11;;;;;;;3.05;2.58;;;6.50;99.90;;;;;;5088179;28;20749;-78
2024/02/29 01:34:37;;;;;;;5.47;2.72;;;6.60;99.90;;;;;;5090384;28;20048;-79
2024/02/29 01:37:03;;;;;;;8.30;3.78;;;6.60;99.90;;;;;;5092022;28;20039;-79
2024/02/29 01:39:29;;;;;;;6.82;3.38;;;6.60;99.90;;;;;;5100951;28;20089;-79
2024/02/29 01:41:56;;;;;;;2.45;2.10;;;6.70;99.90;;;;;;5091383;28;20032;-80
2024/02/29 01:44:22;;;;;;;3.47;2.70;;;6.70;99.90;;;;;;5084556;28;20039;-80
2024/02/29 01:46:48;;;;;;;10.50;4.70;;;6.70;99.90;;;;;;5091514;28;20383;-78
2024/02/29 01:49:16;;;;;;;6.20;2.92;;;6.80;99.90;;;;;;5086164;28;20127;-79
2024/02/29 01:51:43;;;;;;;5.75;3.08;;;6.80;99.90;;;;;;5083387;28;20113;-79
2024/02/29 01:54:10;;;;;;;7.05;3.40;;;6.80;99.90;;;;;;5070046;28;20047;-79
2024/02/29 01:56:37;;;;;;;5.13;2.70;;;6.80;99.90;;;;;;5089575;28;20036;-79
2024/02/29 01:59:04;;;;;;;7.07;3.35;;;6.80;99.90;;;;;;5091571;28;20079;-79
2024/02/29 02:01:30;;;;;;;9.95;3.20;;;6.80;99.90;;;;;;5085525;28;20107;-80
2024/02/29 02:03:56;;;;;;;5.93;2.92;;;6.80;99.90;;;;;;5089765;28;20111;-81
2024/02/29 02:06:21;;;;;;;3.47;2.10;;;6.80;99.90;;;;;;5088116;28;20043;-80
2024/02/29 02:08:47;;;;;;;3.40;2.42;;;6.80;99.90;;;;;;5088317;28;20092;-78
2024/02/29 02:11:13;;;;;;;7.28;3.15;;;6.90;99.90;;;;;;5084172;28;20127;-76
2024/02/29 02:13:39;;;;;;;3.38;2.35;;;6.90;99.90;;;;;;5086006;28;20085;-79
2024/02/29 02:16:09;;;;;;;7.28;3.90;;;6.90;99.90;;;;;;5085901;28;20094;-80
2024/02/29 02:18:35;;;;;;;11.65;3.92;;;6.90;99.90;;;;;;5087471;28;20036;-78
2024/02/29 02:21:01;;;;;;;2.78;2.00;;;6.90;99.90;;;;;;5073075;28;20040;-79
2024/02/29 02:23:27;;;;;;;6.07;3.40;;;7.00;99.90;;;;;;5089966;28;20043;-80
2024/02/29 02:26:00;;;;;;;6.97;3.72;;;7.00;99.90;;;;;;5088958;28;20127;-80
2024/02/29 02:28:27;;;;;;;4.13;2.65;;;7.00;99.90;;;;;;5087614;28;20064;-80
2024/02/29 02:30:53;;;;;;;6.70;2.92;;;7.00;99.90;;;;;;5089041;28;20028;-79
2024/02/29 02:33:22;;;;;;;3.35;2.55;;;7.00;99.90;;;;;;5086994;28;20395;-79
2024/02/29 02:35:48;;;;;;;4.35;2.80;;;7.00;99.90;;;;;;5088216;28;20587;-80
2024/02/29 02:38:14;;;;;;;3.53;2.35;;;7.10;99.90;;;;;;5085147;28;20134;-79
2024/02/29 02:40:40;;;;;;;5.05;2.60;;;7.10;99.90;;;;;;5071056;28;20040;-80
2024/02/29 02:43:05;;;;;;;5.65;3.42;;;7.10;99.90;;;;;;5089355;28;20036;-80
2024/02/29 02:45:31;;;;;;;6.05;2.97;;;7.20;99.90;;;;;;5091250;28;20046;-77
2024/02/29 02:47:57;;;;;;;6.35;3.17;;;7.10;99.90;;;;;;5085546;28;20075;-80
2024/02/29 02:50:24;;;;;;;6.97;2.33;;;7.20;99.90;;;;;;5088418;28;20115;-78
2024/02/29 02:52:49;;;;;;;3.88;2.80;;;7.20;99.90;;;;;;5086577;28;20159;-80
2024/02/29 02:55:15;;;;;;;2.63;2.15;;;7.20;99.90;;;;;;5105939;28;20036;-78
2024/02/29 02:57:41;;;;;;;3.88;2.38;;;7.20;99.90;;;;;;5067710;28;20036;-79
2024/02/29 03:00:10;;;;;;;5.30;2.58;;;7.20;99.90;;;;;;5086155;28;20059;-80
2024/02/29 03:02:37;;;;;;;3.58;2.10;;;7.20;99.90;;;;;;5066427;28;20483;-80
2024/02/29 03:05:04;;;;;;;5.40;2.85;;;7.20;99.90;;;;;;5085273;28;20499;-76
2024/02/29 03:07:30;;;;;;;3.15;2.05;;;7.20;99.90;;;;;;5081649;28;20432;-79
2024/02/29 03:09:56;;;;;;;4.35;2.47;;;7.30;99.90;;;;;;5069126;28;20052;-80
2024/02/29 03:12:22;;;;;;;2.90;2.15;;;7.20;99.90;;;;;;5089023;28;20089;-79
2024/02/29 03:14:49;;;;;;;4.60;2.60;;;7.30;99.90;;;;;;5089629;28;20135;-78
2024/02/29 03:17:14;;;;;;;3.22;2.10;;;7.30;99.90;;;;;;5076916;28;20372;-79
2024/02/29 03:19:40;;;;;;;2.22;1.48;;;7.30;99.90;;;;;;5090634;28;20126;-80
2024/02/29 03:22:06;;;;;;;6.35;2.22;;;7.30;99.90;;;;;;5090427;28;20036;-80
2024/02/29 03:24:32;;;;;;;4.22;1.90;;;7.30;99.90;;;;;;5103530;28;20035;-81
2024/02/29 03:26:57;;;;;;;4.35;2.90;;;7.30;99.90;;;;;;5089910;28;20144;-80
2024/02/29 03:29:23;;;;;;;3.47;2.35;;;7.30;99.90;;;;;;5088379;28;20708;-81
2024/02/29 03:31:49;;;;;;;4.18;2.38;;;7.30;99.90;;;;;;5089370;28;20097;-80
2024/02/29 03:34:15;;;;;;;4.35;2.40;;;7.40;99.90;;;;;;5070367;28;20040;-81
2024/02/29 03:36:41;;;;;;;3.42;2.10;;;7.40;99.90;;;;;;5089390;28;20063;-81
2024/02/29 03:39:07;;;;;;;4.78;2.42;;;7.30;99.90;;;;;;5070497;28;20051;-80
2024/02/29 03:41:33;;;;;;;3.28;1.85;;;7.40;99.90;;;;;;5068132;28;20399;-80
2024/02/29 03:43:59;;;;;;;6.38;2.58;;;7.30;99.90;;;;;;5085946;28;20043;-81
2024/02/29 03:46:25;;;;;;;4.57;2.92;;;7.30;99.90;;;;;;5087497;28;20075;-81
2024/02/29 03:48:51;;;;;;;3.55;2.72;;;7.40;99.90;;;;;;5088713;28;20067;-81
2024/02/29 03:51:18;;;;;;;4.25;1.70;;;7.30;99.90;;;;;;5074056;28;20503;-81
2024/02/29 03:53:44;;;;;;;2.28;1.63;;;7.30;99.90;;;;;;5086897;28;20056;-77
2024/02/29 03:56:10;;;;;;;2.28;1.65;;;7.40;99.90;;;;;;5092871;28;20036;-81
2024/02/29 03:58:36;;;;;;;5.47;2.30;;;7.40;99.90;;;;;;5085517;28;20089;-81
2024/02/29 04:01:01;;;;;;;2.67;1.45;;;7.30;99.90;;;;;;5083743;28;20054;-80
2024/02/29 04:03:27;;;;;;;4.78;2.42;;;7.40;99.90;;;;;;5086809;28;20072;-80
2024/02/29 04:05:53;;;;;;;5.25;2.38;;;7.30;99.90;;;;;;5070116;28;20059;-80
2024/02/29 04:08:18;;;;;;;3.25;1.40;;;7.30;99.90;;;;;;5071066;28;20118;-79
2024/02/29 04:10:48;;;;;;;2.85;1.80;;;7.20;99.90;;;;;;5086565;28;20475;-80
2024/02/29 04:13:14;;;;;;;4.20;2.80;;;7.20;99.90;;;;;;5093561;28;20051;-77
2024/02/29 04:15:40;;;;;;;5.32;2.88;;;7.20;99.90;;;;;;5087144;28;20040;-80
2024/02/29 04:18:06;;;;;;;5.10;2.45;;;7.00;99.90;;;;;;5088993;28;20075;-79
2024/02/29 04:20:32;;;;;;;3.58;2.45;;;7.00;99.90;;;;;;5086451;28;20063;-78
2024/02/29 04:22:57;;;;;;;7.05;2.60;;;7.00;99.90;;;;;;5071032;28;20040;-79
2024/02/29 04:25:23;;;;;;;4.55;2.42;;;7.00;99.90;;;;;;5070097;28;20039;-79
2024/02/29 04:27:50;;;;;;;3.53;2.13;;;7.00;99.90;;;;;;5073454;28;20122;-77
2024/02/29 04:30:16;;;;;;;3.92;1.60;;;6.90;99.90;;;;;;5090212;28;20036;-77
2024/02/29 04:32:42;;;;;;;4.40;2.75;;;6.90;99.90;;;;;;5094137;28;20408;-78
2024/02/29 04:35:09;;;;;;;5.10;2.55;;;6.90;99.90;;;;;;5073912;28;20032;-78
2024/02/29 04:37:35;;;;;;;5.32;2.05;;;6.90;99.90;;;;;;5094135;28;20046;-77
2024/02/29 04:40:01;;;;;;;4.40;2.33;;;6.90;99.90;;;;;;5095963;28;20032;-77
2024/02/29 04:42:26;;;;;;;3.45;2.03;;;6.90;99.90;;;;;;5093617;28;20039;-77
2024/02/29 04:44:52;;;;;;;4.57;1.73;;;6.90;99.90;;;;;;5096897;28;20040;-77
2024/02/29 04:47:18;;;;;;;4.85;2.38;;;6.90;99.90;;;;;;5098971;28;20047;-78
2024/02/29 04:49:44;;;;;;;3.40;1.15;;;6.90;99.90;;;;;;5098061;28;20074;-77
2024/02/29 04:52:10;;;;;;;7.90;1.52;;;6.90;99.90;;;;;;5118859;28;20505;-77
2024/02/29 04:54:37;;;;;;;2.67;1.33;;;6.90;99.90;;;;;;5100297;28;20044;-76
2024/02/29 04:57:03;;;;;;;5.75;2.97;;;6.90;99.90;;;;;;5103367;28;20040;-76
2024/02/29 04:59:29;;;;;;;4.72;2.00;;;7.00;99.90;;;;;;5095688;28;20431;-77
2024/02/29 05:01:55;;;;;;;3.63;2.10;;;6.90;99.90;;;;;;5100674;28;20036;-77
2024/02/29 05:04:20;;;;;;;4.38;2.10;;;6.90;99.90;;;;;;5103196;28;20032;-77
2024/02/29 05:06:46;;;;;;;4.30;2.38;;;6.90;99.90;;;;;;5099914;28;20040;-76
2024/02/29 05:09:12;;;;;;;3.35;2.13;;;6.90;99.90;;;;;;5103299;28;20075;-76
2024/02/29 05:11:37;;;;;;;3.13;1.63;;;6.90;99.90;;;;;;5100905;28;20032;-78
2024/02/29 05:14:05;;;;;;;3.40;2.47;;;7.00;99.90;;;;;;5103273;28;20289;-77
2024/02/29 05:16:31;;;;;;;3.67;1.85;;;6.90;99.90;;;;;;5100350;28;20040;-77
2024/02/29 05:18:56;;;;;;;2.80;1.40;;;6.90;99.90;;;;;;5084819;28;20467;-77
2024/02/29 05:21:22;;;;;;;5.60;2.28;;;6.90;99.90;;;;;;5100397;28;20122;-77
2024/02/29 05:23:48;;;;;;;3.53;2.15;;;7.00;99.90;;;;;;5094580;28;20091;-78
2024/02/29 05:26:13;;;;;;;4.88;1.92;;;7.00;99.90;;;;;;5101521;28;20043;-77
2024/02/29 05:28:39;;;;;;;3.95;2.28;;;7.00;99.90;;;;;;5097288;28;20561;-78
2024/02/29 05:31:05;;;;;;;4.38;1.98;;;7.00;99.90;;;;;;5100724;28;20079;-77
2024/02/29 05:33:31;;;;;;;4.15;2.08;;;7.00;99.90;;;;;;5116353;28;20236;-78
2024/02/29 05:35:56;;;;;;;2.70;1.75;;;7.00;99.90;;;;;;5102778;28;20073;-74
2024/02/29 05:38:22;;;;;;;11.45;2.25;;;7.00;99.90;;;;;;5087982;28;20043;-73
2024/02/29 05:40:48;;;;;;;3.20;1.83;;;7.00;99.90;;;;;;5091946;28;20111;-73
2024/02/29 05:43:14;;;;;;;1.42;0.90;;;7.00;99.90;;;;;;5072605;28;20040;-74
2024/02/29 05:45:40;;;;;;;4.15;2.53;;;7.00;99.90;;;;;;5092651;28;20070;-75
2024/02/29 05:48:06;;;;;;;3.47;2.35;;;7.00;99.90;;;;;;5091222;28;20047;-75
2024/02/29 05:50:32;;;;;;;4.15;2.90;;;7.00;99.90;;;;;;5100613;28;20032;-74
2024/02/29 05:52:58;;;;;;;2.65;1.52;;;7.00;99.90;;;;;;5093316;28;20457;-77
2024/02/29 05:55:24;;;;;;;2.60;1.98;;;6.90;99.90;;;;;;5091903;28;20048;-74
2024/02/29 05:57:50;;;;;;;3.90;2.60;;;6.90;99.90;;;;;;5093053;28;20097;-75
2024/02/29 06:00:22;;;;;;;7.22;1.90;;;6.90;99.90;;;;;;5073633;28;20036;-75
2024/02/29 06:02:47;;;;;;;3.50;2.03;;;6.90;99.90;;;;;;5095392;28;20040;-77
2024/02/29 06:05:13;;;;;;;2.85;1.52;;;6.90;99.90;;;;;;5120386;28;20116;-77
2024/02/29 06:07:39;;;;;;;3.92;2.05;;;6.90;99.90;;;;;;5086474;28;20055;-76
2024/02/29 06:10:08;;;;;;;4.88;1.92;;;6.90;99.90;;;;;;5099352;28;20036;-76
2024/02/29 06:12:35;;;;;;;5.75;2.53;;;6.90;99.90;;;;;;5104163;28;20073;-76
2024/02/29 06:15:01;;;;;;;3.10;1.75;;;6.90;99.90;;;;;;5105160;28;20040;-77
2024/02/29 06:17:26;;;;;;;5.20;2.90;;;6.90;99.90;;;;;;5083090;28;20614;-75
2024/02/29 06:19:52;;;;;;;6.78;1.95;;;6.90;99.90;;;;;;5096651;28;20422;-75
2024/02/29 06:22:22;;;;;;;2.42;1.55;;;6.90;99.90;;;;;;5094029;28;20055;-74
2024/02/29 06:24:51;;;;;;;3.33;2.03;;;6.90;99.90;;;;;;5091127;28;20046;-74
2024/02/29 06:27:21;;;;;;;6.40;1.92;;;6.90;99.90;;;;;;5093462;28;20028;-73
2024/02/29 06:29:47;;;;;;;5.15;2.90;;;6.90;99.90;;;;;;5088994;28;20036;-72
2024/02/29 06:32:15;;;;;;;5.07;2.45;;;6.90;99.90;;;;;;5090396;28;20373;-73
2024/02/29 06:34:41;;;;;;;2.40;1.63;;;6.90;99.90;;;;;;5082467;28;20036;-73
2024/02/29 06:37:07;;;;;;;3.47;1.80;;;6.90;99.90;;;;;;5089322;28;20043;-73
2024/02/29 06:39:33;;;;;;;3.50;1.75;;;6.90;99.90;;;;;;5087503;28;20032;-72
2024/02/29 06:42:03;;;;;;;3.25;2.13;;;6.90;99.90;;;;;;5077370;28;20032;-73
2024/02/29 06:44:29;;;;;;;4.05;2.17;;;6.90;99.90;;;;;;5090934;28;20039;-73
2024/02/29 06:46:54;;;;;;;3.85;2.03;;;6.90;99.90;;;;;;5090084;28;20151;-73
2024/02/29 06:49:22;;;;;;;8.15;2.72;;;6.90;99.90;;;;;;5091661;28;20403;-73
2024/02/29 06:51:49;;;;;;;3.38;1.90;;;6.90;99.90;;;;;;5092014;28;20131;-72
2024/02/29 06:54:14;;;;;;;6.72;2.58;;;6.90;99.90;;;;;;5088905;28;20052;-72
2024/02/29 06:56:40;;;;;;;3.42;1.95;;;6.90;99.90;;;;;;5071393;28;20119;-72
2024/02/29 06:59:06;;;;;;;3.15;1.58;;;6.90;99.90;;;;;;5107108;28;20028;-72
2024/02/29 07:01:32;;;;;;;4.35;3.22;;;6.90;99.90;;;;;;5088648;28;20036;-72
2024/02/29 07:03:59;;;;;;;2.20;1.83;;;7.00;99.90;;;;;;5090281;28;20162;-72
2024/02/29 07:06:25;;;;;;;5.90;2.65;;;7.00;99.90;;;;;;5089160;28;20051;-73
2024/02/29 07:08:51;;;;;;;5.10;2.17;;;7.00;99.90;;;;;;5093483;28;20042;-73
2024/02/29 07:11:16;;;;;;;2.75;1.80;;;7.00;99.90;;;;;;5111892;28;20479;-74
2024/02/29 07:13:42;;;;;;;6.72;3.20;;;7.00;99.90;;;;;;5095421;28;20044;-74
2024/02/29 07:16:09;;;;;;;3.58;2.33;;;7.10;99.90;;;;;;5097139;28;20067;-75
2024/02/29 07:18:36;;;;;;;8.40;2.67;;;7.10;99.90;;;;;;5080548;28;20035;-75
2024/02/29 07:21:02;;;;;;;3.10;1.73;;;7.10;99.90;;;;;;5109676;28;20036;-75
2024/02/29 07:23:30;;;;;;;3.50;1.88;;;7.10;99.90;;;;;;5101345;28;20036;-75
2024/02/29 07:25:56;;;;;;;4.28;2.15;;;7.10;99.90;;;;;;5098786;28;20055;-76
2024/02/29 07:28:21;;;;;;;3.35;1.20;;;7.10;99.90;;;;;;5102281;28;20036;-76
2024/02/29 07:30:47;;;;;;;3.42;1.30;;;7.20;99.90;;;;;;5097478;28;20491;-76
2024/02/29 07:33:13;;;;;;;4.55;1.70;;;7.20;99.90;;;;;;5080901;28;20044;-77
2024/02/29 07:35:38;;;;;;;3.03;1.40;;;7.20;99.90;;;;;;5096565;28;20046;-76
2024/02/29 07:38:04;;;;;;;4.60;2.13;;;7.20;99.90;;;;;;5101011;28;21081;-76
2024/02/29 07:40:30;;;;;;;1.80;1.30;;;7.30;99.90;;;;;;5100056;28;20059;-76
2024/02/29 07:42:56;;;;;;;3.90;1.95;;;7.30;99.90;;;;;;5101926;28;20039;-76
2024/02/29 07:45:22;;;;;;;3.20;1.42;;;7.30;99.90;;;;;;5095049;28;20135;-76
2024/02/29 07:47:47;;;;;;;3.55;2.47;;;7.30;99.90;;;;;;5098687;28;20048;-75
2024/02/29 07:50:13;;;;;;;4.63;2.50;;;7.30;99.90;;;;;;5101480;28;20095;-76
2024/02/29 07:52:39;;;;;;;3.70;2.08;;;7.30;99.90;;;;;;5118702;28;20135;-76
2024/02/29 07:55:05;;;;;;;2.15;1.70;;;7.30;99.90;;;;;;5102052;28;20052;-77
2024/02/29 07:57:31;;;;;;;3.70;1.55;;;7.40;99.90;;;;;;5078659;28;20055;-78
2024/02/29 07:59:58;;;;;;;2.08;1.08;;;7.40;99.90;;;;;;5098428;28;20028;-78
2024/02/29 08:02:23;;;;;;;3.88;1.73;;;7.40;99.90;;;;;;5106215;28;20039;-79
2024/02/29 08:04:49;;;;;;;4.50;2.03;;;7.40;99.90;;;;;;5093202;28;20040;-77
2024/02/29 08:07:15;;;;;;;3.22;2.10;;;7.40;99.90;;;;;;5071658;28;20043;-79
2024/02/29 08:09:41;;;;;;;5.85;2.55;;;7.40;99.90;;;;;;5095253;28;20036;-80
2024/02/29 08:12:06;;;;;;;4.30;1.98;;;7.40;99.90;;;;;;5092635;28;20032;-79
2024/02/29 08:14:32;;;;;;;2.97;1.75;;;7.40;99.90;;;;;;5078566;28;20507;-78
2024/02/29 08:16:58;;;;;;;8.02;2.80;;;7.40;99.90;;;;;;5093095;28;20118;-78
2024/02/29 08:19:24;;;;;;;3.25;1.83;;;7.40;99.90;;;;;;5096076;28;20036;-78
2024/02/29 08:21:50;;;;;;;3.58;1.80;;;7.40;99.90;;;;;;5092035;28;20032;-80
2024/02/29 08:24:16;;;;;;;3.05;1.45;;;7.40;99.90;;;;;;5075840;28;20060;-80
2024/02/29 08:26:42;;;;;;;6.43;2.05;;;7.40;99.90;;;;;;5090422;28;20120;-80
2024/02/29 08:29:13;;;;;;;1.80;1.25;;;7.40;99.90;;;;;;5090954;28;20044;-78
2024/02/29 08:31:43;;;;;;;2.20;1.88;;;7.40;99.90;;;;;;5090012;28;20051;-79
2024/02/29 08:34:09;;;;;;;1.20;1.08;;;7.40;99.90;;;;;;5089510;28;20055;-79
2024/02/29 08:36:34;;;;;;;2.42;1.40;;;7.40;99.90;;;;;;5089356;28;20480;-78
2024/02/29 08:39:00;;;;;;;8.35;2.28;;;7.50;99.90;;;;;;5085876;28;20544;-79
2024/02/29 08:41:26;;;;;;;3.58;2.33;;;7.50;99.90;;;;;;5088100;28;20047;-78
2024/02/29 08:43:52;;;;;;;4.60;2.38;;;7.50;99.90;;;;;;5100592;28;20524;-79
2024/02/29 08:46:18;;;;;;;4.75;2.28;;;7.60;99.90;;;;;;5088200;28;20047;-76
2024/02/29 08:48:43;;;;;;;5.72;1.95;;;7.60;99.90;;;;;;5066754;28;20109;-79
2024/02/29 08:51:09;;;;;;;3.55;1.60;;;7.70;99.90;;;;;;5071931;28;20036;-79
2024/02/29 08:53:35;;;;;;;3.85;1.75;;;7.60;99.90;;;;;;5088104;28;20136;-79
2024/02/29 08:56:01;;;;;;;3.63;2.20;;;7.70;99.90;;;;;;5086146;28;20059;-79
2024/02/29 08:58:27;;;;;;;2.85;1.60;;;7.70;99.90;;;;;;5086742;28;20072;-79
2024/02/29 09:00:53;;;;;;;2.17;1.48;;;7.70;99.90;;;;;;5087034;28;20036;-79
2024/02/29 09:03:19;;;;;;;3.58;1.85;;;7.70;99.90;;;;;;5068894;28;20039;-79
2024/02/29 09:05:45;;;;;;;3.42;2.33;;;7.80;99.90;;;;;;5087079;28;20040;-78
2024/02/29 09:08:11;;;;;;;4.78;1.85;;;7.80;99.90;;;;;;5067884;28;20078;-79
2024/02/29 09:10:36;;;;;;;4.38;2.10;;;7.80;99.90;;;;;;5085082;28;20443;-79
2024/02/29 09:13:05;;;;;;;3.03;2.13;;;7.80;99.90;;;;;;5085319;28;20677;-79
2024/02/29 09:15:32;;;;;;;2.28;1.90;;;7.80;99.90;;;;;;5085730;28;20062;-79
2024/02/29 09:17:57;;;;;;;2.67;1.90;;;7.90;99.90;;;;;;5085807;28;20454;-79
2024/02/29 09:20:23;;;;;;;4.85;2.10;;;7.90;99.90;;;;;;5086291;28;20032;-79
2024/02/29 09:22:49;;;;;;;2.70;1.58;;;7.90;99.90;;;;;;5088101;28;20067;-78
2024/02/29 09:25:17;;;;;;;3.60;1.50;;;7.90;99.90;;;;;;5106483;28;20040;-79
2024/02/29 09:27:44;;;;;;;6.30;3.17;;;7.90;99.90;;;;;;5078222;28;20044;-79
2024/02/29 09:30:11;;;;;;;2.58;1.30;;;7.90;99.90;;;;;;5107220;28;20032;-78
2024/02/29 09:32:36;;;;;;;3.45;2.22;;;7.90;99.90;;;;;;5092755;28;20555;-78
2024/02/29 09:35:03;;;;;;;6.95;2.33;;;7.90;99.90;;;;;;5089431;28;20123;-78
2024/02/29 09:37:30;;;;;;;2.75;1.55;;;7.90;99.90;;;;;;5090778;28;20491;-78
2024/02/29 09:39:55;;;;;;;2.40;1.52;;;7.90;99.90;;;;;;5088163;28;20073;-79
2024/02/29 09:42:22;;;;;;;4.68;2.08;;;8.00;99.90;;;;;;5091986;28;20063;-78
2024/02/29 09:44:50;;;;;;;2.95;1.58;;;8.00;99.90;;;;;;5089664;28;20039;-78
2024/02/29 09:47:19;;;;;;;2.90;1.63;;;8.10;99.90;;;;;;5108725;28;20399;-77
2024/02/29 09:49:45;;;;;;;2.00;0.98;;;8.10;99.90;;;;;;5070305;28;20480;-77
2024/02/29 09:52:12;;;;;;;3.65;2.30;;;8.10;99.90;;;;;;5092293;28;20074;-78
2024/02/29 09:54:40;;;;;;;2.30;1.42;;;8.10;99.90;;;;;;5088174;28;20137;-77
2024/02/29 09:57:10;;;;;;;1.88;1.38;;;8.20;99.90;;;;;;5091132;28;20044;-76
2024/02/29 09:59:42;;;;;;;3.53;1.67;;;8.10;99.90;;;;;;5089326;28;20043;-76
2024/02/29 10:02:14;;;;;;;3.22;2.20;;;8.10;99.90;;;;;;5089555;28;20027;-77
2024/02/29 10:04:40;;;;;;;3.10;1.92;;;8.10;99.90;;;;;;5090420;28;20118;-77
2024/02/29 10:07:07;;;;;;;7.63;2.20;;;8.10;99.90;;;;;;5088906;28;20116;-75
2024/02/29 10:09:33;;;;;;;1.80;1.30;;;8.10;99.90;;;;;;5088914;28;20079;-76
2024/02/29 10:11:59;;;;;;;4.10;2.55;;;8.10;99.90;;;;;;5088741;28;20040;-77
2024/02/29 10:14:26;;;;;;;3.95;1.92;;;8.10;99.90;;;;;;5071496;28;20403;-77
2024/02/29 10:16:53;;;;;;;5.85;2.30;;;8.10;99.90;;;;;;5087565;28;20048;-77
2024/02/29 10:19:23;;;;;;;3.47;1.55;;;8.20;99.90;;;;;;5086533;28;20136;-78
2024/02/29 10:21:49;;;;;;;4.88;2.30;;;8.20;99.90;;;;;;5073045;28;20031;-77
2024/02/29 10:24:18;;;;;;;5.50;1.88;;;8.20;99.90;;;;;;5090978;28;20047;-77
2024/02/29 10:26:43;;;;;;;2.92;1.75;;;8.20;99.90;;;;;;5087169;28;20102;-77
2024/02/29 10:29:10;;;;;;;6.97;2.70;;;8.20;99.90;;;;;;5087597;28;20040;-76
2024/02/29 10:31:36;;;;;;;3.90;2.13;;;8.20;99.90;;;;;;5088341;28;20047;-76
2024/02/29 10:34:02;;;;;;;9.95;2.55;;;8.30;99.90;;;;;;5069534;28;20325;-77
2024/02/29 10:36:30;;;;;;;3.53;2.03;;;8.30;99.90;;;;;;5089960;28;20040;-76
2024/02/29 10:38:57;;;;;;;4.15;2.35;;;8.40;99.90;;;;;;5087066;28;20036;-76
2024/02/29 10:41:26;;;;;;;4.85;3.50;;;8.40;99.90;;;;;;5085734;28;20047;-77
2024/02/29 10:43:54;;;;;;;2.90;2.03;;;8.50;99.90;;;;;;5089958;28;20100;-76
2024/02/29 10:46:21;;;;;;;3.97;2.17;;;8.50;99.90;;;;;;5086364;28;20036;-77
2024/02/29 10:48:52;;;;;;;3.92;2.28;;;8.60;99.90;;;;;;5089649;28;20032;-76
2024/02/29 10:51:32;;;;;;;2.55;1.55;;;8.60;99.90;;;;;;5084674;28;20041;-76
2024/02/29 10:54:12;;;;;;;3.22;1.48;;;8.70;99.90;;;;;;5049872;28;20060;-76
2024/02/29 10:56:39;;;;;;;3.75;2.05;;;8.80;99.90;;;;;;5048105;28;20052;-76
2024/02/29 10:59:07;;;;;;;7.95;2.47;;;8.90;99.90;;;;;;5044114;28;20047;-76
2024/02/29 11:01:35;;;;;;;6.05;2.17;;;8.90;99.90;;;;;;5052064;28;20036;-76
2024/02/29 11:04:01;;;;;;;5.07;2.22;;;9.10;99.90;;;;;;5048046;28;20419;-76
2024/02/29 11:06:31;;;;;;;5.38;3.35;;;9.10;99.90;;;;;;5050604;28;20037;-76
2024/02/29 11:08:58;;;;;;;5.50;2.35;;;9.20;99.90;;;;;;5046315;28;20472;-76
2024/02/29 11:11:28;;;;;;;3.70;2.20;;;9.30;99.90;;;;;;5055133;28;20119;-76
2024/02/29 11:14:05;;;;;;;3.88;2.63;;;9.30;99.90;;;;;;5053170;28;20051;-76
2024/02/29 11:16:42;;;;;;;5.18;2.08;;;9.30;99.90;;;;;;5051726;28;20043;-76
2024/02/29 11:19:17;;;;;;;5.07;2.67;;;9.40;99.90;;;;;;5052465;28;20046;-76
2024/02/29 11:21:44;;;;;;;6.03;2.17;;;9.40;99.90;;;;;;5072490;28;20107;-76
2024/02/29 11:24:20;;;;;;;6.53;3.53;;;9.40;99.90;;;;;;5051162;28;20036;-75
2024/02/29 11:26:45;;;;;;;4.50;2.60;;;9.40;99.90;;;;;;5056379;28;20048;-75
2024/02/29 11:29:16;;;;;;;4.47;2.65;;;9.50;99.90;;;;;;5057250;28;20036;-76
2024/02/29 11:31:43;;;;;;;4.45;2.45;;;9.50;99.90;;;;;;5035393;28;20142;-76
2024/02/29 11:34:10;;;;;;;3.42;2.03;;;9.50;99.90;;;;;;5052641;28;20037;-75
2024/02/29 11:36:37;;;;;;;7.85;2.85;;;9.50;99.90;;;;;;5038541;28;20119;-76
2024/02/29 11:39:04;;;;;;;2.25;1.80;;;9.50;99.90;;;;;;5053660;28;20762;-75
2024/02/29 11:41:30;;;;;;;7.55;2.63;;;9.50;99.90;;;;;;5041698;28;20036;-76
2024/02/29 11:43:56;;;;;;;4.40;2.78;;;9.50;99.90;;;;;;5071491;28;20047;-75
2024/02/29 11:46:22;;;;;;;5.93;3.03;;;9.50;99.90;;;;;;5055308;28;20131;-76
2024/02/29 11:48:52;;;;;;;5.50;3.33;;;9.50;99.90;;;;;;5052174;28;20488;-76
2024/02/29 11:51:17;;;;;;;4.53;1.65;;;9.50;99.90;;;;;;5051175;28;20044;-76
2024/02/29 11:53:43;;;;;;;6.82;2.90;;;9.50;99.90;;;;;;5087659;28;20114;-75
2024/02/29 11:56:09;;;;;;;3.92;2.08;;;9.50;99.90;;;;;;5086913;28;20067;-76
2024/02/29 11:58:36;;;;;;;4.82;2.50;;;9.50;99.90;;;;;;5093186;28;20036;-76
2024/02/29 12:01:02;;;;;;;2.47;1.65;;;9.50;99.90;;;;;;5070251;28;20040;-76
2024/02/29 12:03:29;;;;;;;7.43;1.95;;;9.50;99.90;;;;;;5086351;28;20625;-76
2024/02/29 12:05:59;;;;;;;5.95;2.42;;;9.50;99.90;;;;;;5107059;28;20104;-76
2024/02/29 12:08:26;;;;;;;4.45;2.25;;;9.40;99.90;;;;;;5093787;28;20060;-76
2024/02/29 12:10:59;;;;;;;2.88;1.80;;;9.40;99.90;;;;;;5067153;28;20043;-76
2024/02/29 12:13:29;;;;;;;3.72;1.85;;;9.40;99.90;;;;;;5093284;28;20040;-75
2024/02/29 12:15:57;;;;;;;3.97;1.83;;;9.40;99.90;;;;;;5105325;28;20408;-74
2024/02/29 12:18:23;;;;;;;3.55;2.17;;;9.40;99.90;;;;;;5096021;28;20494;-74
2024/02/29 12:20:49;;;;;;;6.22;2.70;;;9.30;99.90;;;;;;5091389;28;20028;-74
2024/02/29 12:23:15;;;;;;;2.65;1.73;;;9.30;99.90;;;;;;5097181;28;20048;-74
2024/02/29 12:25:43;;;;;;;5.30;2.20;;;9.20;99.90;;;;;;5089723;28;20074;-74
2024/02/29 12:28:12;;;;;;;3.58;2.58;;;9.20;99.90;;;;;;5090718;28;20442;-73
2024/02/29 12:30:38;;;;;;;3.85;2.17;;;9.20;99.90;;;;;;5085208;28;20051;-74
2024/02/29 12:33:12;;;;;;;2.65;1.65;;;9.10;99.90;;;;;;5109147;28;20074;-74
2024/02/29 12:35:38;;;;;;;3.90;3.00;;;9.10;99.90;;;;;;5079265;28;20092;-74
2024/02/29 12:38:04;;;;;;;4.60;2.03;;;9.10;99.90;;;;;;5079415;28;20118;-75
2024/02/29 12:40:32;;;;;;;4.45;2.17;;;9.00;99.90;;;;;;5114115;28;20013;-75
2024/02/29 12:42:58;;;;;;;1.92;1.33;;;9.00;99.90;;;;;;5095332;28;20043;-76
2024/02/29 12:45:26;;;;;;;5.03;2.30;;;9.00;99.90;;;;;;5065274;28;20123;-76
2024/02/29 12:47:54;;;;;;;3.75;2.65;;;9.00;99.90;;;;;;5078618;28;20044;-76
2024/02/29 12:50:21;;;;;;;4.50;2.92;;;9.00;99.90;;;;;;5114715;28;20097;-76
2024/02/29 12:52:53;;;;;;;3.60;1.75;;;9.00;99.90;;;;;;5097259;28;20056;-74
2024/02/29 12:55:21;;;;;;;5.93;2.38;;;9.00;99.90;;;;;;5102030;28;20055;-75